sensor_id;sensor_type;location;lat;lon;timestamp;temperature;humidity
7920;DHT22;18778;47.610;9.776;2023-12-20T00:02:18;3.50;99.90
7920;DHT22;18778;47.610;9.776;2023-12-20T00:04:44;3.50;99.90
7920;DHT22;18778;47.610;9.776;2023-12-20T00:09:35;3.70;99.90
7920;DHT22;18778;47.610;9.776;2023-12-20T00:12:01;3.70;99.90
7920;DHT22;18778;47.610;9.776;2023-12-20T00:14:26;3.60;99.90
7920;DHT22;18778;47.610;9.776;2023-12-20T00:16:52;3.60;99.90
7920;DHT22;18778;47.610;9.776;2023-12-20T00:19:17;3.60;99.90
7920;DHT22;18778;47.610;9.776;2023-12-20T00:21:43;3.60;99.90
7920;DHT22;18778;47.610;9.776;2023-12-20T00:24:08;3.90;99.90
7920;DHT22;18778;47.610;9.776;2023-12-20T00:26:34;3.60;99.90
7920;DHT22;18778;47.610;9.776;2023-12-20T00:28:59;3.60;99.90
7920;DHT22;18778;47.610;9.776;2023-12-20T00:31:25;3.60;99.90
7920;DHT22;18778;47.610;9.776;2023-12-20T00:33:50;3.50;99.90
7920;DHT22;18778;47.610;9.776;2023-12-20T00:36:16;3.50;99.90
7920;DHT22;18778;47.610;9.776;2023-12-20T00:38:41;3.50;99.90
7920;DHT22;18778;47.610;9.776;2023-12-20T00:43:33;3.40;99.90
7920;DHT22;18778;47.610;9.776;2023-12-20T00:45:59;3.70;99.90
7920;DHT22;18778;47.610;9.776;2023-12-20T00:48:25;3.40;99.90
7920;DHT22;18778;47.610;9.776;2023-12-20T00:50:52;3.50;99.90
7920;DHT22;18778;47.610;9.776;2023-12-20T00:53:18;3.40;99.90
7920;DHT22;18778;47.610;9.776;2023-12-20T00:55:44;3.50;99.90
7920;DHT22;18778;47.610;9.776;2023-12-20T00:58:10;3.40;99.90
7920;DHT22;18778;47.610;9.776;2023-12-20T01:00:36;3.40;99.90
7920;DHT22;18778;47.610;9.776;2023-12-20T01:03:01;3.30;99.90
7920;DHT22;18778;47.610;9.776;2023-12-20T01:05:27;3.30;99.90
7920;DHT22;18778;47.610;9.776;2023-12-20T01:07:52;3.20;99.90
7920;DHT22;18778;47.610;9.776;2023-12-20T01:10:18;3.20;99.90
7920;DHT22;18778;47.610;9.776;2023-12-20T01:12:44;3.30;99.90
7920;DHT22;18778;47.610;9.776;2023-12-20T01:15:10;3.40;99.90
7920;DHT22;18778;47.610;9.776;2023-12-20T01:17:35;3.40;99.90
7920;DHT22;18778;47.610;9.776;2023-12-20T01:20:01;3.30;99.90
7920;DHT22;18778;47.610;9.776;2023-12-20T01:22:26;3.50;99.90
7920;DHT22;18778;47.610;9.776;2023-12-20T01:24:52;3.40;99.90
7920;DHT22;18778;47.610;9.776;2023-12-20T01:27:18;3.60;99.90
7920;DHT22;18778;47.610;9.776;2023-12-20T01:29:43;3.70;99.90
7920;DHT22;18778;47.610;9.776;2023-12-20T01:32:09;3.70;99.90
7920;DHT22;18778;47.610;9.776;2023-12-20T01:34:34;3.80;99.90
7920;DHT22;18778;47.610;9.776;2023-12-20T01:37:01;3.70;99.90
7920;DHT22;18778;47.610;9.776;2023-12-20T01:39:29;3.70;99.90
7920;DHT22;18778;47.610;9.776;2023-12-20T01:41:55;3.70;99.90
7920;DHT22;18778;47.610;9.776;2023-12-20T01:44:20;3.80;99.90
7920;DHT22;18778;47.610;9.776;2023-12-20T01:46:46;5.30;99.90
7920;DHT22;18778;47.610;9.776;2023-12-20T01:49:14;3.70;99.90
7920;DHT22;18778;47.610;9.776;2023-12-20T01:51:40;7.00;99.90
7920;DHT22;18778;47.610;9.776;2023-12-20T01:54:06;3.80;99.90
7920;DHT22;18778;47.610;9.776;2023-12-20T01:56:32;3.90;99.90
7920;DHT22;18778;47.610;9.776;2023-12-20T01:58:58;4.00;99.90
7920;DHT22;18778;47.610;9.776;2023-12-20T02:01:24;3.80;99.90
7920;DHT22;18778;47.610;9.776;2023-12-20T02:03:50;3.90;99.90
7920;DHT22;18778;47.610;9.776;2023-12-20T02:06:18;3.90;99.90
7920;DHT22;18778;47.610;9.776;2023-12-20T02:08:43;4.00;99.90
7920;DHT22;18778;47.610;9.776;2023-12-20T02:11:10;4.20;99.90
7920;DHT22;18778;47.610;9.776;2023-12-20T02:13:35;4.10;99.90
7920;DHT22;18778;47.610;9.776;2023-12-20T02:16:01;4.20;99.90
7920;DHT22;18778;47.610;9.776;2023-12-20T02:18:27;4.40;99.90
7920;DHT22;18778;47.610;9.776;2023-12-20T02:20:52;4.20;99.90
7920;DHT22;18778;47.610;9.776;2023-12-20T02:23:18;4.40;99.90
7920;DHT22;18778;47.610;9.776;2023-12-20T02:25:44;4.30;99.90
7920;DHT22;18778;47.610;9.776;2023-12-20T02:28:09;4.40;99.90
7920;DHT22;18778;47.610;9.776;2023-12-20T02:30:35;4.50;99.90
7920;DHT22;18778;47.610;9.776;2023-12-20T02:33:01;4.50;99.90
7920;DHT22;18778;47.610;9.776;2023-12-20T02:35:28;4.60;99.90
7920;DHT22;18778;47.610;9.776;2023-12-20T02:37:53;4.60;99.90
7920;DHT22;18778;47.610;9.776;2023-12-20T02:40:19;4.70;99.90
7920;DHT22;18778;47.610;9.776;2023-12-20T02:42:44;4.80;99.90
7920;DHT22;18778;47.610;9.776;2023-12-20T02:45:10;4.80;99.90
7920;DHT22;18778;47.610;9.776;2023-12-20T02:47:35;4.90;99.90
7920;DHT22;18778;47.610;9.776;2023-12-20T02:50:01;5.00;99.90
7920;DHT22;18778;47.610;9.776;2023-12-20T02:52:28;5.00;99.90
7920;DHT22;18778;47.610;9.776;2023-12-20T02:54:54;5.00;99.90
7920;DHT22;18778;47.610;9.776;2023-12-20T02:57:19;5.20;99.90
7920;DHT22;18778;47.610;9.776;2023-12-20T02:59:45;5.30;99.90
7920;DHT22;18778;47.610;9.776;2023-12-20T03:02:10;5.30;99.90
7920;DHT22;18778;47.610;9.776;2023-12-20T03:04:36;5.20;99.90
7920;DHT22;18778;47.610;9.776;2023-12-20T03:07:01;5.40;99.90
7920;DHT22;18778;47.610;9.776;2023-12-20T03:09:27;7.60;99.90
7920;DHT22;18778;47.610;9.776;2023-12-20T03:11:52;5.50;99.90
7920;DHT22;18778;47.610;9.776;2023-12-20T03:14:18;5.30;99.90
7920;DHT22;18778;47.610;9.776;2023-12-20T03:16:48;5.40;99.90
7920;DHT22;18778;47.610;9.776;2023-12-20T03:19:15;5.30;99.90
7920;DHT22;18778;47.610;9.776;2023-12-20T03:21:41;5.60;99.90
7920;DHT22;18778;47.610;9.776;2023-12-20T03:24:07;5.50;99.90
7920;DHT22;18778;47.610;9.776;2023-12-20T03:26:32;5.80;99.90
7920;DHT22;18778;47.610;9.776;2023-12-20T03:28:58;5.50;99.90
7920;DHT22;18778;47.610;9.776;2023-12-20T03:31:23;5.40;99.90
7920;DHT22;18778;47.610;9.776;2023-12-20T03:33:49;5.20;99.90
7920;DHT22;18778;47.610;9.776;2023-12-20T03:36:16;5.10;99.90
7920;DHT22;18778;47.610;9.776;2023-12-20T03:38:42;5.00;99.90
7920;DHT22;18778;47.610;9.776;2023-12-20T03:43:33;4.80;99.90
7920;DHT22;18778;47.610;9.776;2023-12-20T03:45:59;4.50;99.90
7920;DHT22;18778;47.610;9.776;2023-12-20T03:48:25;4.70;99.90
7920;DHT22;18778;47.610;9.776;2023-12-20T03:50:50;4.60;99.90
7920;DHT22;18778;47.610;9.776;2023-12-20T03:53:16;4.60;99.90
7920;DHT22;18778;47.610;9.776;2023-12-20T03:55:41;4.40;99.90
7920;DHT22;18778;47.610;9.776;2023-12-20T03:58:07;4.40;99.90
7920;DHT22;18778;47.610;9.776;2023-12-20T04:00:32;4.20;99.90
7920;DHT22;18778;47.610;9.776;2023-12-20T04:02:58;4.30;99.90
7920;DHT22;18778;47.610;9.776;2023-12-20T04:05:23;4.30;99.90
7920;DHT22;18778;47.610;9.776;2023-12-20T04:07:49;4.30;99.90
7920;DHT22;18778;47.610;9.776;2023-12-20T04:10:15;4.20;99.90
7920;DHT22;18778;47.610;9.776;2023-12-20T04:12:41;3.90;99.90
7920;DHT22;18778;47.610;9.776;2023-12-20T04:15:07;4.20;99.90
7920;DHT22;18778;47.610;9.776;2023-12-20T04:17:35;4.00;99.90
7920;DHT22;18778;47.610;9.776;2023-12-20T04:24:53;3.90;99.90
7920;DHT22;18778;47.610;9.776;2023-12-20T04:27:19;3.80;99.90
7920;DHT22;18778;47.610;9.776;2023-12-20T04:29:44;3.80;99.90
7920;DHT22;18778;47.610;9.776;2023-12-20T04:32:10;3.80;99.90
7920;DHT22;18778;47.610;9.776;2023-12-20T04:34:36;3.80;99.90
7920;DHT22;18778;47.610;9.776;2023-12-20T04:37:01;3.70;99.90
7920;DHT22;18778;47.610;9.776;2023-12-20T04:39:27;3.70;99.90
7920;DHT22;18778;47.610;9.776;2023-12-20T04:44:19;3.80;99.90
7920;DHT22;18778;47.610;9.776;2023-12-20T04:46:44;3.80;99.90
7920;DHT22;18778;47.610;9.776;2023-12-20T04:49:10;3.70;99.90
7920;DHT22;18778;47.610;9.776;2023-12-20T04:51:36;3.80;99.90
7920;DHT22;18778;47.610;9.776;2023-12-20T04:54:02;3.90;99.90
7920;DHT22;18778;47.610;9.776;2023-12-20T04:56:28;3.80;99.90
7920;DHT22;18778;47.610;9.776;2023-12-20T04:58:53;3.90;99.90
7920;DHT22;18778;47.610;9.776;2023-12-20T05:01:19;3.90;99.90
7920;DHT22;18778;47.610;9.776;2023-12-20T05:03:46;3.90;99.90
7920;DHT22;18778;47.610;9.776;2023-12-20T05:06:11;3.80;99.90
7920;DHT22;18778;47.610;9.776;2023-12-20T05:08:37;3.70;99.90
7920;DHT22;18778;47.610;9.776;2023-12-20T05:11:02;3.80;99.90
7920;DHT22;18778;47.610;9.776;2023-12-20T05:13:28;3.80;99.90
7920;DHT22;18778;47.610;9.776;2023-12-20T05:15:54;3.80;99.90
7920;DHT22;18778;47.610;9.776;2023-12-20T05:18:20;3.90;99.90
7920;DHT22;18778;47.610;9.776;2023-12-20T05:20:46;4.00;99.90
7920;DHT22;18778;47.610;9.776;2023-12-20T05:23:12;4.00;99.90
7920;DHT22;18778;47.610;9.776;2023-12-20T05:25:38;4.00;99.90
7920;DHT22;18778;47.610;9.776;2023-12-20T05:28:04;4.10;99.90
7920;DHT22;18778;47.610;9.776;2023-12-20T05:30:30;4.10;99.90
7920;DHT22;18778;47.610;9.776;2023-12-20T05:32:55;4.10;99.90
7920;DHT22;18778;47.610;9.776;2023-12-20T05:35:21;5.20;99.90
7920;DHT22;18778;47.610;9.776;2023-12-20T05:37:48;4.20;99.90
7920;DHT22;18778;47.610;9.776;2023-12-20T05:40:14;4.10;99.90
7920;DHT22;18778;47.610;9.776;2023-12-20T05:42:40;4.20;99.90
7920;DHT22;18778;47.610;9.776;2023-12-20T05:45:06;4.20;99.90
7920;DHT22;18778;47.610;9.776;2023-12-20T05:47:32;4.20;99.90
7920;DHT22;18778;47.610;9.776;2023-12-20T05:49:57;4.20;99.90
7920;DHT22;18778;47.610;9.776;2023-12-20T05:52:23;4.30;99.90
7920;DHT22;18778;47.610;9.776;2023-12-20T05:57:14;4.30;99.90
7920;DHT22;18778;47.610;9.776;2023-12-20T05:59:40;4.40;99.90
7920;DHT22;18778;47.610;9.776;2023-12-20T06:02:06;4.40;99.90
7920;DHT22;18778;47.610;9.776;2023-12-20T06:04:31;4.30;99.90
7920;DHT22;18778;47.610;9.776;2023-12-20T06:06:57;4.30;99.90
7920;DHT22;18778;47.610;9.776;2023-12-20T06:09:23;4.40;99.90
7920;DHT22;18778;47.610;9.776;2023-12-20T06:11:49;7.60;99.90
7920;DHT22;18778;47.610;9.776;2023-12-20T06:14:15;4.40;99.90
7920;DHT22;18778;47.610;9.776;2023-12-20T06:16:40;4.40;99.90
7920;DHT22;18778;47.610;9.776;2023-12-20T06:19:06;4.40;99.90
7920;DHT22;18778;47.610;9.776;2023-12-20T06:21:31;4.40;99.90
7920;DHT22;18778;47.610;9.776;2023-12-20T06:23:58;4.40;99.90
7920;DHT22;18778;47.610;9.776;2023-12-20T06:26:24;4.20;99.90
7920;DHT22;18778;47.610;9.776;2023-12-20T06:28:50;4.40;99.90
7920;DHT22;18778;47.610;9.776;2023-12-20T06:31:15;7.00;99.90
7920;DHT22;18778;47.610;9.776;2023-12-20T06:33:41;4.40;99.90
7920;DHT22;18778;47.610;9.776;2023-12-20T06:36:07;4.40;99.90
7920;DHT22;18778;47.610;9.776;2023-12-20T06:38:33;4.40;99.90
7920;DHT22;18778;47.610;9.776;2023-12-20T06:40:58;4.50;99.90
7920;DHT22;18778;47.610;9.776;2023-12-20T06:43:24;4.50;99.90
7920;DHT22;18778;47.610;9.776;2023-12-20T06:45:50;4.50;99.90
7920;DHT22;18778;47.610;9.776;2023-12-20T06:48:16;4.40;99.90
7920;DHT22;18778;47.610;9.776;2023-12-20T06:50:42;4.40;99.90
7920;DHT22;18778;47.610;9.776;2023-12-20T06:53:07;4.30;99.90
7920;DHT22;18778;47.610;9.776;2023-12-20T06:55:35;4.40;99.90
7920;DHT22;18778;47.610;9.776;2023-12-20T06:58:01;4.40;99.90
7920;DHT22;18778;47.610;9.776;2023-12-20T07:00:27;4.40;99.90
7920;DHT22;18778;47.610;9.776;2023-12-20T07:02:53;4.30;99.90
7920;DHT22;18778;47.610;9.776;2023-12-20T07:05:19;4.30;99.90
7920;DHT22;18778;47.610;9.776;2023-12-20T07:07:46;4.30;99.90
7920;DHT22;18778;47.610;9.776;2023-12-20T07:10:12;4.40;99.90
7920;DHT22;18778;47.610;9.776;2023-12-20T07:12:38;4.40;99.90
7920;DHT22;18778;47.610;9.776;2023-12-20T07:15:04;4.30;99.90
7920;DHT22;18778;47.610;9.776;2023-12-20T07:17:31;4.30;99.90
7920;DHT22;18778;47.610;9.776;2023-12-20T07:19:58;4.30;99.90
7920;DHT22;18778;47.610;9.776;2023-12-20T07:22:24;4.10;99.90
7920;DHT22;18778;47.610;9.776;2023-12-20T07:24:49;4.20;99.90
7920;DHT22;18778;47.610;9.776;2023-12-20T07:27:17;4.20;99.90
7920;DHT22;18778;47.610;9.776;2023-12-20T07:29:43;4.20;99.90
7920;DHT22;18778;47.610;9.776;2023-12-20T07:32:08;4.20;99.90
7920;DHT22;18778;47.610;9.776;2023-12-20T07:34:34;4.20;99.90
7920;DHT22;18778;47.610;9.776;2023-12-20T07:36:59;4.20;99.90
7920;DHT22;18778;47.610;9.776;2023-12-20T07:39:25;4.20;99.90
7920;DHT22;18778;47.610;9.776;2023-12-20T07:41:50;4.10;99.90
7920;DHT22;18778;47.610;9.776;2023-12-20T07:44:16;4.20;99.90
7920;DHT22;18778;47.610;9.776;2023-12-20T07:46:42;4.10;99.90
7920;DHT22;18778;47.610;9.776;2023-12-20T07:49:08;4.10;99.90
7920;DHT22;18778;47.610;9.776;2023-12-20T07:51:34;4.20;99.90
7920;DHT22;18778;47.610;9.776;2023-12-20T07:53:59;4.10;99.90
7920;DHT22;18778;47.610;9.776;2023-12-20T07:58:51;4.20;99.90
7920;DHT22;18778;47.610;9.776;2023-12-20T08:01:16;4.20;99.90
7920;DHT22;18778;47.610;9.776;2023-12-20T08:03:43;4.20;99.90
7920;DHT22;18778;47.610;9.776;2023-12-20T08:06:09;4.20;99.90
7920;DHT22;18778;47.610;9.776;2023-12-20T08:08:34;4.20;99.90
7920;DHT22;18778;47.610;9.776;2023-12-20T08:11:00;4.20;99.90
7920;DHT22;18778;47.610;9.776;2023-12-20T08:13:26;4.30;99.90
7920;DHT22;18778;47.610;9.776;2023-12-20T08:15:53;5.70;99.90
7920;DHT22;18778;47.610;9.776;2023-12-20T08:18:19;4.30;99.90
7920;DHT22;18778;47.610;9.776;2023-12-20T08:20:44;6.40;99.90
7920;DHT22;18778;47.610;9.776;2023-12-20T08:23:10;4.40;99.90
7920;DHT22;18778;47.610;9.776;2023-12-20T08:25:35;4.40;99.90
7920;DHT22;18778;47.610;9.776;2023-12-20T08:28:02;4.60;99.90
7920;DHT22;18778;47.610;9.776;2023-12-20T08:30:28;4.60;99.90
7920;DHT22;18778;47.610;9.776;2023-12-20T08:32:55;4.50;99.90
7920;DHT22;18778;47.610;9.776;2023-12-20T08:35:20;4.50;99.90
7920;DHT22;18778;47.610;9.776;2023-12-20T08:37:46;4.50;99.90
7920;DHT22;18778;47.610;9.776;2023-12-20T08:40:12;5.90;99.90
7920;DHT22;18778;47.610;9.776;2023-12-20T08:42:37;4.50;99.90
7920;DHT22;18778;47.610;9.776;2023-12-20T08:45:03;4.60;99.90
7920;DHT22;18778;47.610;9.776;2023-12-20T08:47:29;4.60;99.90
7920;DHT22;18778;47.610;9.776;2023-12-20T08:49:55;4.70;99.90
7920;DHT22;18778;47.610;9.776;2023-12-20T08:52:22;4.60;99.90
7920;DHT22;18778;47.610;9.776;2023-12-20T08:57:18;4.70;99.90
7920;DHT22;18778;47.610;9.776;2023-12-20T08:59:44;4.70;99.90
7920;DHT22;18778;47.610;9.776;2023-12-20T09:02:09;4.70;99.90
7920;DHT22;18778;47.610;9.776;2023-12-20T09:04:35;4.60;99.90
7920;DHT22;18778;47.610;9.776;2023-12-20T09:07:00;4.70;99.90
7920;DHT22;18778;47.610;9.776;2023-12-20T09:09:26;4.70;99.90
7920;DHT22;18778;47.610;9.776;2023-12-20T09:11:52;4.80;99.90
7920;DHT22;18778;47.610;9.776;2023-12-20T09:14:17;4.70;99.90
7920;DHT22;18778;47.610;9.776;2023-12-20T09:16:43;4.80;99.90
7920;DHT22;18778;47.610;9.776;2023-12-20T09:19:08;4.60;99.90
7920;DHT22;18778;47.610;9.776;2023-12-20T09:21:34;4.80;99.90
7920;DHT22;18778;47.610;9.776;2023-12-20T09:24:00;4.70;99.90
7920;DHT22;18778;47.610;9.776;2023-12-20T09:26:25;4.90;99.90
7920;DHT22;18778;47.610;9.776;2023-12-20T09:28:51;4.70;99.90
7920;DHT22;18778;47.610;9.776;2023-12-20T09:31:16;5.10;99.90
7920;DHT22;18778;47.610;9.776;2023-12-20T09:33:42;5.10;99.90
7920;DHT22;18778;47.610;9.776;2023-12-20T09:36:07;5.10;99.90
7920;DHT22;18778;47.610;9.776;2023-12-20T09:38:33;5.10;99.90
7920;DHT22;18778;47.610;9.776;2023-12-20T09:41:00;5.00;99.90
7920;DHT22;18778;47.610;9.776;2023-12-20T09:43:27;5.10;99.90
7920;DHT22;18778;47.610;9.776;2023-12-20T09:46:00;5.00;99.90
7920;DHT22;18778;47.610;9.776;2023-12-20T09:48:26;5.00;99.90
7920;DHT22;18778;47.610;9.776;2023-12-20T09:50:53;5.00;99.90
7920;DHT22;18778;47.610;9.776;2023-12-20T09:53:19;5.00;99.90
7920;DHT22;18778;47.610;9.776;2023-12-20T09:55:45;5.00;99.90
7920;DHT22;18778;47.610;9.776;2023-12-20T09:58:11;7.70;99.90
7920;DHT22;18778;47.610;9.776;2023-12-20T10:00:36;5.00;99.90
7920;DHT22;18778;47.610;9.776;2023-12-20T10:03:02;5.10;99.90
7920;DHT22;18778;47.610;9.776;2023-12-20T10:05:32;6.20;99.90
7920;DHT22;18778;47.610;9.776;2023-12-20T10:07:59;5.20;99.90
7920;DHT22;18778;47.610;9.776;2023-12-20T10:10:25;5.20;99.90
7920;DHT22;18778;47.610;9.776;2023-12-20T10:13:12;5.20;99.90
7920;DHT22;18778;47.610;9.776;2023-12-20T10:15:38;5.10;99.90
7920;DHT22;18778;47.610;9.776;2023-12-20T10:18:04;5.30;99.90
7920;DHT22;18778;47.610;9.776;2023-12-20T10:20:30;5.30;99.90
7920;DHT22;18778;47.610;9.776;2023-12-20T10:22:59;5.20;99.90
7920;DHT22;18778;47.610;9.776;2023-12-20T10:25:25;5.40;99.90
7920;DHT22;18778;47.610;9.776;2023-12-20T10:28:12;7.80;99.90
7920;DHT22;18778;47.610;9.776;2023-12-20T10:30:39;5.30;99.90
7920;DHT22;18778;47.610;9.776;2023-12-20T10:33:07;5.30;99.90
7920;DHT22;18778;47.610;9.776;2023-12-20T10:35:34;5.20;99.90
7920;DHT22;18778;47.610;9.776;2023-12-20T10:38:03;5.40;99.90
7920;DHT22;18778;47.610;9.776;2023-12-20T10:40:29;5.40;99.90
7920;DHT22;18778;47.610;9.776;2023-12-20T10:42:56;5.30;99.90
7920;DHT22;18778;47.610;9.776;2023-12-20T10:45:23;5.40;99.90
7920;DHT22;18778;47.610;9.776;2023-12-20T10:47:50;5.30;99.90
7920;DHT22;18778;47.610;9.776;2023-12-20T10:50:16;5.30;99.90
7920;DHT22;18778;47.610;9.776;2023-12-20T10:52:44;5.30;99.90
7920;DHT22;18778;47.610;9.776;2023-12-20T10:55:11;5.30;99.90
7920;DHT22;18778;47.610;9.776;2023-12-20T10:57:36;5.40;99.90
7920;DHT22;18778;47.610;9.776;2023-12-20T11:00:02;6.20;99.90
7920;DHT22;18778;47.610;9.776;2023-12-20T11:02:38;5.40;99.90
7920;DHT22;18778;47.610;9.776;2023-12-20T11:08:00;5.40;99.90
7920;DHT22;18778;47.610;9.776;2023-12-20T11:10:38;5.40;99.90
7920;DHT22;18778;47.610;9.776;2023-12-20T11:13:12;5.40;99.90
7920;DHT22;18778;47.610;9.776;2023-12-20T11:15:39;6.30;99.90
7920;DHT22;18778;47.610;9.776;2023-12-20T11:18:05;5.50;99.90
7920;DHT22;18778;47.610;9.776;2023-12-20T11:20:39;5.50;99.90
7920;DHT22;18778;47.610;9.776;2023-12-20T11:23:05;6.60;99.90
7920;DHT22;18778;47.610;9.776;2023-12-20T11:25:49;5.60;99.90
7920;DHT22;18778;47.610;9.776;2023-12-20T11:28:21;5.70;99.90
7920;DHT22;18778;47.610;9.776;2023-12-20T11:30:50;5.60;99.90
7920;DHT22;18778;47.610;9.776;2023-12-20T11:33:16;5.70;99.90
7920;DHT22;18778;47.610;9.776;2023-12-20T11:35:42;5.60;99.90
7920;DHT22;18778;47.610;9.776;2023-12-20T11:38:09;5.60;99.90
7920;DHT22;18778;47.610;9.776;2023-12-20T11:40:35;5.30;99.90
7920;DHT22;18778;47.610;9.776;2023-12-20T11:43:01;6.10;99.90
7920;DHT22;18778;47.610;9.776;2023-12-20T11:45:27;6.10;99.90
7920;DHT22;18778;47.610;9.776;2023-12-20T11:47:53;5.70;99.90
7920;DHT22;18778;47.610;9.776;2023-12-20T11:50:21;5.50;99.90
7920;DHT22;18778;47.610;9.776;2023-12-20T11:52:48;5.50;99.90
7920;DHT22;18778;47.610;9.776;2023-12-20T11:55:14;5.50;99.90
7920;DHT22;18778;47.610;9.776;2023-12-20T11:57:39;7.20;99.90
7920;DHT22;18778;47.610;9.776;2023-12-20T12:00:06;5.40;99.90
7920;DHT22;18778;47.610;9.776;2023-12-20T12:02:32;5.50;99.90
7920;DHT22;18778;47.610;9.776;2023-12-20T12:04:59;5.40;99.90
7920;DHT22;18778;47.610;9.776;2023-12-20T12:07:24;5.40;99.90
7920;DHT22;18778;47.610;9.776;2023-12-20T12:09:50;5.50;99.90
7920;DHT22;18778;47.610;9.776;2023-12-20T12:12:17;5.40;99.90
7920;DHT22;18778;47.610;9.776;2023-12-20T12:14:44;5.60;99.90
7920;DHT22;18778;47.610;9.776;2023-12-20T12:17:14;5.60;99.90
7920;DHT22;18778;47.610;9.776;2023-12-20T12:19:40;5.70;99.90
7920;DHT22;18778;47.610;9.776;2023-12-20T12:24:33;5.70;99.90
7920;DHT22;18778;47.610;9.776;2023-12-20T12:26:59;5.70;99.90
7920;DHT22;18778;47.610;9.776;2023-12-20T12:29:25;5.60;99.90
7920;DHT22;18778;47.610;9.776;2023-12-20T12:31:51;5.80;99.90
7920;DHT22;18778;47.610;9.776;2023-12-20T12:34:17;5.90;99.90
7920;DHT22;18778;47.610;9.776;2023-12-20T12:36:43;5.90;99.90
7920;DHT22;18778;47.610;9.776;2023-12-20T12:39:12;6.00;99.90
7920;DHT22;18778;47.610;9.776;2023-12-20T12:41:38;6.00;99.90
7920;DHT22;18778;47.610;9.776;2023-12-20T12:44:03;6.00;99.90
7920;DHT22;18778;47.610;9.776;2023-12-20T12:46:29;6.10;99.90
7920;DHT22;18778;47.610;9.776;2023-12-20T12:48:54;6.10;99.90
7920;DHT22;18778;47.610;9.776;2023-12-20T12:51:20;6.00;99.90
7920;DHT22;18778;47.610;9.776;2023-12-20T12:53:45;6.10;99.90
7920;DHT22;18778;47.610;9.776;2023-12-20T12:56:12;6.10;99.90
7920;DHT22;18778;47.610;9.776;2023-12-20T12:58:38;6.00;99.90
7920;DHT22;18778;47.610;9.776;2023-12-20T13:01:04;5.90;99.90
7920;DHT22;18778;47.610;9.776;2023-12-20T13:03:30;6.00;99.90
7920;DHT22;18778;47.610;9.776;2023-12-20T13:05:55;5.90;99.90
7920;DHT22;18778;47.610;9.776;2023-12-20T13:08:21;5.90;99.90
7920;DHT22;18778;47.610;9.776;2023-12-20T13:10:47;5.90;99.90
7920;DHT22;18778;47.610;9.776;2023-12-20T13:13:12;5.90;99.90
7920;DHT22;18778;47.610;9.776;2023-12-20T13:15:38;5.90;99.90
7920;DHT22;18778;47.610;9.776;2023-12-20T13:18:04;6.00;99.90
7920;DHT22;18778;47.610;9.776;2023-12-20T13:20:31;6.00;99.90
7920;DHT22;18778;47.610;9.776;2023-12-20T13:22:57;6.00;99.90
7920;DHT22;18778;47.610;9.776;2023-12-20T13:25:22;6.00;99.90
7920;DHT22;18778;47.610;9.776;2023-12-20T13:27:49;6.00;99.90
7920;DHT22;18778;47.610;9.776;2023-12-20T13:30:16;6.00;99.90
7920;DHT22;18778;47.610;9.776;2023-12-20T13:32:42;5.90;99.90
7920;DHT22;18778;47.610;9.776;2023-12-20T13:35:08;5.90;99.90
7920;DHT22;18778;47.610;9.776;2023-12-20T13:37:34;5.90;99.90
7920;DHT22;18778;47.610;9.776;2023-12-20T13:42:27;6.00;99.90
7920;DHT22;18778;47.610;9.776;2023-12-20T13:44:53;5.90;99.90
7920;DHT22;18778;47.610;9.776;2023-12-20T13:47:18;5.70;99.90
7920;DHT22;18778;47.610;9.776;2023-12-20T13:49:45;5.90;99.90
7920;DHT22;18778;47.610;9.776;2023-12-20T13:52:10;5.90;99.90
7920;DHT22;18778;47.610;9.776;2023-12-20T13:54:37;5.90;99.90
7920;DHT22;18778;47.610;9.776;2023-12-20T13:57:03;5.80;99.90
7920;DHT22;18778;47.610;9.776;2023-12-20T13:59:29;5.80;99.90
7920;DHT22;18778;47.610;9.776;2023-12-20T14:01:54;5.80;99.90
7920;DHT22;18778;47.610;9.776;2023-12-20T14:04:20;5.80;99.90
7920;DHT22;18778;47.610;9.776;2023-12-20T14:06:47;5.70;99.90
7920;DHT22;18778;47.610;9.776;2023-12-20T14:09:12;5.70;99.90
7920;DHT22;18778;47.610;9.776;2023-12-20T14:11:38;5.70;99.90
7920;DHT22;18778;47.610;9.776;2023-12-20T14:14:07;7.70;99.90
7920;DHT22;18778;47.610;9.776;2023-12-20T14:16:35;5.70;99.90
7920;DHT22;18778;47.610;9.776;2023-12-20T14:19:01;5.60;99.90
7920;DHT22;18778;47.610;9.776;2023-12-20T14:21:28;5.50;99.90
7920;DHT22;18778;47.610;9.776;2023-12-20T14:23:54;5.60;99.90
7920;DHT22;18778;47.610;9.776;2023-12-20T14:26:19;5.60;99.90
7920;DHT22;18778;47.610;9.776;2023-12-20T14:28:45;5.50;99.90
7920;DHT22;18778;47.610;9.776;2023-12-20T14:31:11;5.60;99.90
7920;DHT22;18778;47.610;9.776;2023-12-20T14:33:37;5.50;99.90
7920;DHT22;18778;47.610;9.776;2023-12-20T14:36:05;5.50;99.90
7920;DHT22;18778;47.610;9.776;2023-12-20T14:38:34;5.50;99.90
7920;DHT22;18778;47.610;9.776;2023-12-20T14:41:00;5.50;99.90
7920;DHT22;18778;47.610;9.776;2023-12-20T14:43:28;5.50;99.90
7920;DHT22;18778;47.610;9.776;2023-12-20T14:45:54;5.50;99.90
7920;DHT22;18778;47.610;9.776;2023-12-20T14:48:20;5.50;99.90
7920;DHT22;18778;47.610;9.776;2023-12-20T14:50:46;5.40;99.90
7920;DHT22;18778;47.610;9.776;2023-12-20T14:53:14;5.40;99.90
7920;DHT22;18778;47.610;9.776;2023-12-20T14:55:41;6.60;99.90
7920;DHT22;18778;47.610;9.776;2023-12-20T14:58:07;5.40;99.90
7920;DHT22;18778;47.610;9.776;2023-12-20T15:00:33;5.40;99.90
7920;DHT22;18778;47.610;9.776;2023-12-20T15:02:59;5.30;99.90
7920;DHT22;18778;47.610;9.776;2023-12-20T15:05:24;5.20;99.90
7920;DHT22;18778;47.610;9.776;2023-12-20T15:07:50;5.30;99.90
7920;DHT22;18778;47.610;9.776;2023-12-20T15:10:16;5.20;99.90
7920;DHT22;18778;47.610;9.776;2023-12-20T15:12:42;4.50;99.90
7920;DHT22;18778;47.610;9.776;2023-12-20T15:15:08;5.20;99.90
7920;DHT22;18778;47.610;9.776;2023-12-20T15:17:35;5.20;99.90
7920;DHT22;18778;47.610;9.776;2023-12-20T15:20:02;5.10;99.90
7920;DHT22;18778;47.610;9.776;2023-12-20T15:22:27;5.10;99.90
7920;DHT22;18778;47.610;9.776;2023-12-20T15:24:53;5.00;99.90
7920;DHT22;18778;47.610;9.776;2023-12-20T15:27:20;4.90;99.90
7920;DHT22;18778;47.610;9.776;2023-12-20T15:29:45;4.90;99.90
7920;DHT22;18778;47.610;9.776;2023-12-20T15:32:11;6.10;99.90
7920;DHT22;18778;47.610;9.776;2023-12-20T15:34:37;4.80;99.90
7920;DHT22;18778;47.610;9.776;2023-12-20T15:37:02;4.80;99.90
7920;DHT22;18778;47.610;9.776;2023-12-20T15:39:28;4.80;99.90
7920;DHT22;18778;47.610;9.776;2023-12-20T15:41:54;4.80;99.90
7920;DHT22;18778;47.610;9.776;2023-12-20T15:44:19;4.90;99.90
7920;DHT22;18778;47.610;9.776;2023-12-20T15:46:45;4.80;99.90
7920;DHT22;18778;47.610;9.776;2023-12-20T15:49:10;4.80;99.90
7920;DHT22;18778;47.610;9.776;2023-12-20T15:51:37;4.70;99.90
7920;DHT22;18778;47.610;9.776;2023-12-20T15:54:03;7.40;99.90
7920;DHT22;18778;47.610;9.776;2023-12-20T15:56:32;4.70;99.90
7920;DHT22;18778;47.610;9.776;2023-12-20T15:58:58;4.70;99.90
7920;DHT22;18778;47.610;9.776;2023-12-20T16:01:24;4.70;99.90
7920;DHT22;18778;47.610;9.776;2023-12-20T16:03:50;4.70;99.90
7920;DHT22;18778;47.610;9.776;2023-12-20T16:06:15;4.60;99.90
7920;DHT22;18778;47.610;9.776;2023-12-20T16:08:42;4.60;99.90
7920;DHT22;18778;47.610;9.776;2023-12-20T16:11:08;4.60;99.90
7920;DHT22;18778;47.610;9.776;2023-12-20T16:13:33;4.60;99.90
7920;DHT22;18778;47.610;9.776;2023-12-20T16:16:02;4.60;99.90
7920;DHT22;18778;47.610;9.776;2023-12-20T16:18:28;4.60;99.90
7920;DHT22;18778;47.610;9.776;2023-12-20T16:20:54;4.50;99.90
7920;DHT22;18778;47.610;9.776;2023-12-20T16:23:19;4.60;99.90
7920;DHT22;18778;47.610;9.776;2023-12-20T16:25:45;4.40;99.90